createdAt,value
2017-09-29T00:02:18.506Z,15.47
2017-09-29T00:04:46.099Z,15.90
2017-09-29T00:07:13.677Z,14.73
2017-09-29T00:09:41.224Z,15.10
2017-09-29T00:12:08.795Z,15.17
2017-09-29T00:14:36.368Z,15.77
2017-09-29T00:17:03.964Z,15.03
2017-09-29T00:19:31.573Z,15.47
2017-09-29T00:21:59.153Z,14.70
2017-09-29T00:24:26.709Z,14.57
2017-09-29T00:26:54.323Z,14.77
2017-09-29T00:29:21.885Z,14.90
2017-09-29T00:31:49.441Z,14.80
2017-09-29T00:34:17.011Z,15.20
2017-09-29T00:36:44.588Z,14.37
2017-09-29T00:39:12.162Z,15.20
2017-09-29T00:41:39.731Z,14.67
2017-09-29T00:44:07.300Z,14.33
2017-09-29T00:46:34.873Z,15.70
2017-09-29T00:49:02.430Z,14.90
2017-09-29T00:51:29.990Z,15.43
2017-09-29T00:53:57.557Z,14.80
2017-09-29T00:56:25.904Z,14.93
2017-09-29T00:58:53.473Z,14.90
2017-09-29T01:01:21.049Z,15.77
2017-09-29T01:03:48.712Z,15.77
2017-09-29T01:06:16.248Z,14.60
2017-09-29T01:08:44.693Z,15.20
2017-09-29T01:11:12.269Z,14.87
2017-09-29T01:13:39.861Z,14.40
2017-09-29T01:16:07.457Z,14.50
2017-09-29T01:18:35.072Z,14.70
2017-09-29T01:21:02.682Z,14.20
2017-09-29T01:23:30.292Z,15.13
2017-09-29T01:25:57.882Z,14.13
2017-09-29T01:28:26.225Z,14.50
2017-09-29T01:30:53.834Z,14.77
2017-09-29T01:33:22.209Z,13.43
2017-09-29T01:35:49.815Z,15.63
2017-09-29T01:38:17.374Z,13.97
2017-09-29T01:40:44.959Z,13.17
2017-09-29T01:43:12.549Z,13.73
2017-09-29T01:45:40.884Z,14.10
2017-09-29T01:48:08.461Z,13.07
2017-09-29T01:50:36.068Z,13.20
2017-09-29T01:53:03.669Z,13.10
2017-09-29T01:55:31.333Z,13.43
2017-09-29T01:57:58.917Z,13.70
2017-09-29T02:00:26.531Z,13.30
2017-09-29T02:02:54.094Z,12.43
2017-09-29T02:05:21.665Z,12.37
2017-09-29T02:07:49.228Z,12.60
2017-09-29T02:10:16.781Z,12.17
2017-09-29T02:12:44.341Z,12.50
2017-09-29T02:15:11.925Z,12.83
2017-09-29T02:17:39.512Z,11.40
2017-09-29T02:20:07.878Z,12.57
2017-09-29T02:22:35.453Z,11.50
2017-09-29T02:25:03.791Z,11.70
2017-09-29T02:27:31.333Z,12.20
2017-09-29T02:29:58.907Z,12.70
2017-09-29T02:32:26.449Z,11.57
2017-09-29T02:34:54.035Z,11.33
2017-09-29T02:37:21.613Z,12.00
2017-09-29T02:39:49.227Z,11.37
2017-09-29T02:42:16.786Z,11.70
2017-09-29T02:44:44.348Z,10.47
2017-09-29T02:47:11.911Z,10.30
2017-09-29T02:49:39.458Z,10.83
2017-09-29T02:52:07.027Z,10.83
2017-09-29T02:54:34.609Z,11.20
2017-09-29T02:57:04.584Z,11.40
2017-09-29T02:59:35.966Z,11.07
2017-09-29T03:02:04.731Z,10.93
2017-09-29T03:04:33.649Z,11.07
2017-09-29T03:07:01.245Z,10.77
2017-09-29T03:09:28.809Z,11.50
2017-09-29T03:11:57.138Z,12.10
2017-09-29T03:14:24.701Z,12.97
2017-09-29T03:16:52.291Z,12.70
2017-09-29T03:19:19.867Z,12.47
2017-09-29T03:21:47.454Z,12.67
2017-09-29T03:24:15.012Z,11.90
2017-09-29T03:26:42.563Z,11.20
2017-09-29T03:29:10.896Z,11.57
2017-09-29T03:31:38.457Z,12.07
2017-09-29T03:34:06.016Z,11.40
2017-09-29T03:36:33.590Z,11.80
2017-09-29T03:39:01.180Z,12.30
2017-09-29T03:41:29.533Z,12.60
2017-09-29T03:43:57.103Z,12.10
2017-09-29T03:46:24.664Z,11.63
2017-09-29T03:48:52.226Z,11.93
2017-09-29T03:51:20.304Z,13.27
2017-09-29T03:53:49.129Z,12.20
2017-09-29T03:56:17.179Z,13.17
2017-09-29T03:58:45.956Z,12.60
2017-09-29T04:01:14.305Z,11.43
2017-09-29T04:03:41.909Z,10.97
2017-09-29T04:06:09.478Z,12.00
2017-09-29T04:08:37.071Z,12.70
2017-09-29T04:11:04.642Z,11.63
2017-09-29T04:13:32.206Z,12.10
2017-09-29T04:16:00.572Z,11.60
2017-09-29T04:18:28.130Z,12.00
2017-09-29T04:20:55.686Z,11.50
2017-09-29T04:23:23.250Z,11.67
2017-09-29T04:25:50.805Z,11.50
2017-09-29T04:28:18.376Z,11.60
2017-09-29T04:30:45.938Z,11.43
2017-09-29T04:33:13.522Z,11.70
2017-09-29T04:35:41.852Z,11.47
2017-09-29T04:38:09.409Z,11.43
2017-09-29T04:40:37.003Z,12.13
2017-09-29T04:43:04.558Z,11.70
2017-09-29T04:45:32.122Z,11.30
2017-09-29T04:47:59.690Z,11.47
2017-09-29T04:50:27.268Z,13.00
2017-09-29T04:52:55.596Z,11.47
2017-09-29T04:55:23.162Z,12.23
2017-09-29T04:57:50.733Z,12.60
2017-09-29T05:00:18.289Z,11.80
2017-09-29T05:02:45.853Z,12.80
2017-09-29T05:05:13.413Z,12.57
2017-09-29T05:07:40.983Z,12.50
2017-09-29T05:10:08.553Z,11.77
2017-09-29T05:12:36.110Z,12.40
2017-09-29T05:15:03.669Z,11.03
2017-09-29T05:17:31.260Z,11.03
2017-09-29T05:19:58.807Z,12.43
2017-09-29T05:22:27.149Z,12.40
2017-09-29T05:24:54.733Z,11.97
2017-09-29T05:27:22.282Z,12.17
2017-09-29T05:29:49.878Z,12.40
2017-09-29T05:32:17.440Z,12.57
2017-09-29T05:34:45.005Z,12.13
2017-09-29T05:37:12.588Z,12.60
2017-09-29T05:39:40.166Z,12.80
2017-09-29T05:42:07.738Z,12.30
2017-09-29T05:44:35.311Z,11.70
2017-09-29T05:47:02.902Z,11.67
2017-09-29T05:49:30.450Z,11.80
2017-09-29T05:51:58.799Z,12.77
2017-09-29T05:54:26.348Z,12.80
2017-09-29T05:56:53.915Z,12.67
2017-09-29T05:59:21.555Z,12.83
2017-09-29T06:01:49.132Z,12.27
2017-09-29T06:04:16.682Z,11.80
2017-09-29T06:06:44.252Z,11.67
2017-09-29T06:09:11.805Z,12.37
2017-09-29T06:11:39.388Z,12.17
2017-09-29T06:14:06.964Z,12.03
2017-09-29T06:16:35.328Z,12.53
2017-09-29T06:19:02.900Z,12.37
2017-09-29T06:21:31.255Z,11.97
2017-09-29T06:23:58.825Z,11.30
2017-09-29T06:26:26.403Z,12.30
2017-09-29T06:28:54.775Z,13.23
2017-09-29T06:31:23.117Z,11.80
2017-09-29T06:33:50.667Z,12.20
2017-09-29T06:36:18.247Z,11.83
2017-09-29T06:38:45.799Z,11.97
2017-09-29T06:41:13.346Z,12.30
2017-09-29T06:43:40.911Z,12.30
2017-09-29T06:46:08.487Z,11.90
2017-09-29T06:48:36.043Z,12.60
2017-09-29T06:51:03.749Z,11.97
2017-09-29T06:53:32.068Z,13.30
2017-09-29T06:55:59.633Z,11.70
2017-09-29T06:58:27.204Z,11.47
2017-09-29T07:00:54.767Z,12.50
2017-09-29T07:03:22.333Z,11.87
2017-09-29T07:05:49.905Z,12.63
2017-09-29T07:08:17.469Z,12.20
2017-09-29T07:10:45.138Z,12.20
2017-09-29T07:13:13.466Z,12.70
2017-09-29T07:15:41.032Z,12.47
2017-09-29T07:18:08.607Z,13.40
2017-09-29T07:20:36.191Z,12.53
2017-09-29T07:23:05.044Z,12.67
2017-09-29T07:25:33.131Z,13.30
2017-09-29T07:28:02.078Z,12.67
2017-09-29T07:30:30.798Z,12.43
2017-09-29T07:32:58.390Z,12.00
2017-09-29T07:35:25.942Z,12.67
2017-09-29T07:37:53.556Z,12.30
2017-09-29T07:40:21.204Z,11.93
2017-09-29T07:42:48.798Z,12.37
2017-09-29T07:45:23.275Z,11.97
2017-09-29T07:47:50.857Z,12.07
2017-09-29T07:50:18.442Z,12.13
2017-09-29T07:52:46.025Z,11.50
2017-09-29T07:55:14.376Z,11.63
2017-09-29T07:57:41.928Z,11.40
2017-09-29T08:00:09.545Z,11.60
2017-09-29T08:02:37.107Z,11.40
2017-09-29T08:05:04.693Z,11.53
2017-09-29T08:07:32.263Z,12.13
2017-09-29T08:09:59.829Z,11.40
2017-09-29T08:12:27.400Z,11.13
2017-09-29T08:14:54.967Z,10.93
2017-09-29T08:17:22.535Z,10.07
2017-09-29T08:19:50.874Z,9.60
2017-09-29T08:22:18.449Z,8.87
2017-09-29T08:24:46.042Z,8.43
2017-09-29T08:27:14.407Z,8.40
2017-09-29T08:29:41.971Z,7.77
2017-09-29T08:32:10.337Z,6.73
2017-09-29T08:34:38.142Z,7.30
2017-09-29T08:37:05.760Z,8.10
2017-09-29T08:39:33.335Z,7.50
2017-09-29T08:42:01.674Z,7.60
2017-09-29T08:44:29.279Z,7.80
2017-09-29T08:46:57.633Z,8.47
2017-09-29T08:49:25.231Z,8.53
2017-09-29T08:51:53.569Z,9.57
2017-09-29T08:54:21.230Z,8.80
2017-09-29T08:56:48.849Z,9.40
2017-09-29T08:59:16.403Z,9.33
2017-09-29T09:01:43.992Z,8.93
2017-09-29T09:04:11.598Z,9.53
2017-09-29T09:06:39.964Z,8.30
2017-09-29T09:09:07.594Z,9.70
2017-09-29T09:11:35.216Z,9.40
2017-09-29T09:14:03.544Z,8.70
2017-09-29T09:16:31.121Z,8.90
2017-09-29T09:18:58.701Z,8.53
2017-09-29T09:21:27.094Z,9.13
2017-09-29T09:23:54.706Z,8.77
2017-09-29T09:26:22.282Z,8.00
2017-09-29T09:28:49.881Z,9.40
2017-09-29T09:31:17.456Z,9.00
2017-09-29T09:33:45.061Z,9.70
2017-09-29T09:36:12.631Z,9.17
2017-09-29T09:38:41.193Z,9.10
2017-09-29T09:41:08.823Z,9.07
2017-09-29T09:43:36.379Z,8.57
2017-09-29T09:46:03.971Z,8.50
2017-09-29T09:48:31.529Z,9.40
2017-09-29T09:50:59.125Z,8.77
2017-09-29T09:53:27.458Z,8.47
2017-09-29T09:55:55.043Z,8.10
2017-09-29T09:58:22.628Z,8.77
2017-09-29T10:00:51.004Z,8.40
2017-09-29T10:03:19.349Z,8.67
2017-09-29T10:05:46.922Z,8.60
2017-09-29T10:08:14.536Z,9.33
2017-09-29T10:10:42.118Z,8.50
2017-09-29T10:13:09.689Z,8.70
2017-09-29T10:15:37.307Z,8.53
2017-09-29T10:18:06.148Z,7.87
2017-09-29T10:20:33.782Z,6.70
2017-09-29T10:23:01.355Z,7.00
2017-09-29T10:25:34.622Z,7.23
2017-09-29T10:28:02.196Z,7.37
2017-09-29T10:30:29.761Z,7.07
2017-09-29T10:32:57.330Z,7.00
2017-09-29T10:35:24.905Z,7.43
2017-09-29T10:37:52.458Z,7.03
2017-09-29T10:40:22.239Z,7.30
2017-09-29T10:42:49.819Z,7.17
2017-09-29T10:45:17.389Z,7.60
2017-09-29T10:47:44.952Z,7.90
2017-09-29T10:50:12.538Z,7.30
2017-09-29T10:52:40.865Z,7.53
2017-09-29T10:55:08.473Z,6.83
2017-09-29T10:57:36.045Z,7.27
2017-09-29T11:00:04.363Z,7.00
2017-09-29T11:02:31.927Z,6.30
2017-09-29T11:04:59.547Z,5.97
2017-09-29T11:07:27.877Z,5.37
2017-09-29T11:09:55.454Z,5.10
2017-09-29T11:12:23.086Z,5.03
2017-09-29T11:14:50.656Z,5.70
2017-09-29T11:17:18.221Z,5.00
2017-09-29T11:19:45.777Z,5.13
2017-09-29T11:22:13.352Z,4.67
2017-09-29T11:24:40.908Z,5.50
2017-09-29T11:27:08.497Z,5.20
2017-09-29T11:29:36.849Z,5.10
2017-09-29T11:32:04.411Z,4.90
2017-09-29T11:34:31.985Z,4.90
2017-09-29T11:36:59.556Z,6.87
2017-09-29T11:39:27.892Z,4.43
2017-09-29T11:41:55.463Z,4.47
2017-09-29T11:44:23.031Z,5.20
2017-09-29T11:46:50.589Z,5.03
2017-09-29T11:49:18.184Z,4.90
2017-09-29T11:51:46.543Z,4.50
2017-09-29T11:54:14.113Z,4.37
2017-09-29T11:56:42.478Z,5.00
2017-09-29T11:59:10.100Z,4.47
2017-09-29T12:01:37.703Z,4.60
2017-09-29T12:04:05.248Z,4.03
2017-09-29T12:06:32.836Z,4.27
2017-09-29T12:09:01.170Z,5.13
2017-09-29T12:11:28.743Z,4.37
2017-09-29T12:13:56.358Z,4.43
2017-09-29T12:16:23.959Z,4.30
2017-09-29T12:18:51.512Z,5.20
2017-09-29T12:21:19.078Z,5.30
2017-09-29T12:23:46.684Z,4.70
2017-09-29T12:26:15.015Z,4.60
2017-09-29T12:28:42.606Z,4.70
2017-09-29T12:31:10.951Z,4.53
2017-09-29T12:33:38.526Z,4.70
2017-09-29T12:36:06.092Z,4.73
2017-09-29T12:38:33.678Z,4.80
2017-09-29T12:41:02.040Z,4.80
2017-09-29T12:43:29.639Z,5.03
2017-09-29T12:45:57.221Z,6.17
2017-09-29T12:48:24.785Z,5.23
2017-09-29T12:50:52.378Z,5.87
2017-09-29T12:53:19.952Z,5.70
2017-09-29T12:55:47.557Z,5.80
2017-09-29T12:58:15.123Z,6.73
2017-09-29T13:00:42.717Z,5.80
2017-09-29T13:03:11.074Z,6.10
2017-09-29T13:05:38.712Z,5.90
2017-09-29T13:08:06.301Z,5.80
2017-09-29T13:10:33.856Z,6.07
2017-09-29T13:13:01.870Z,6.97
2017-09-29T13:15:30.201Z,6.17
2017-09-29T13:17:57.764Z,7.00
2017-09-29T13:20:25.332Z,6.07
2017-09-29T13:22:52.914Z,5.83
2017-09-29T13:25:20.489Z,5.50
2017-09-29T13:27:48.828Z,5.60
2017-09-29T13:30:16.411Z,5.37
2017-09-29T13:32:43.982Z,15.60
2017-09-29T13:35:12.333Z,7.77
2017-09-29T13:37:39.883Z,9.00
2017-09-29T13:40:07.433Z,6.10
2017-09-29T13:42:34.998Z,6.57
2017-09-29T13:45:02.602Z,7.00
2017-09-29T13:47:30.960Z,5.23
2017-09-29T13:49:58.506Z,6.00
2017-09-29T13:52:26.073Z,5.40
2017-09-29T13:54:53.659Z,5.60
2017-09-29T13:57:22.022Z,4.80
2017-09-29T13:59:49.578Z,5.33
2017-09-29T14:02:17.133Z,5.30
2017-09-29T14:04:44.733Z,5.27
2017-09-29T14:07:13.062Z,4.97
2017-09-29T14:09:40.673Z,5.73
2017-09-29T14:12:08.241Z,5.90
2017-09-29T14:14:35.802Z,6.10
2017-09-29T14:17:03.370Z,5.50
2017-09-29T14:19:30.938Z,6.00
2017-09-29T14:21:58.499Z,5.47
2017-09-29T14:24:26.090Z,5.60
2017-09-29T14:26:53.665Z,5.87
2017-09-29T14:29:21.262Z,4.97
2017-09-29T14:31:48.806Z,5.80
2017-09-29T14:34:17.146Z,5.80
2017-09-29T14:36:44.696Z,5.53
2017-09-29T14:39:12.271Z,5.17
2017-09-29T14:41:39.831Z,5.13
2017-09-29T14:44:07.399Z,5.40
2017-09-29T14:46:34.975Z,5.27
2017-09-29T14:49:02.552Z,5.50
2017-09-29T14:51:30.898Z,5.07
2017-09-29T14:53:58.493Z,4.90
2017-09-29T14:56:26.859Z,5.70
2017-09-29T14:58:55.217Z,5.23
2017-09-29T15:01:22.788Z,5.80
2017-09-29T15:03:51.128Z,6.00
2017-09-29T15:06:18.883Z,5.17
2017-09-29T15:08:46.518Z,5.67
2017-09-29T15:11:14.056Z,5.90
2017-09-29T15:13:41.610Z,5.40
2017-09-29T15:16:09.185Z,6.00
2017-09-29T15:18:37.515Z,5.10
2017-09-29T15:21:05.062Z,5.10
2017-09-29T15:23:32.629Z,5.50
2017-09-29T15:26:00.176Z,5.93
2017-09-29T15:28:27.742Z,5.30
2017-09-29T15:30:55.291Z,5.50
2017-09-29T15:33:22.860Z,5.83
2017-09-29T15:35:50.418Z,5.77
2017-09-29T15:38:17.979Z,5.47
2017-09-29T15:40:45.545Z,5.33
2017-09-29T15:43:13.106Z,6.10
2017-09-29T15:45:40.700Z,5.90
2017-09-29T15:48:08.270Z,5.77
2017-09-29T15:50:35.838Z,5.07
2017-09-29T15:53:04.226Z,5.30
2017-09-29T15:55:32.579Z,5.10
2017-09-29T15:58:00.172Z,5.67
2017-09-29T16:00:27.757Z,5.07
2017-09-29T16:02:55.310Z,5.70
2017-09-29T16:05:22.891Z,6.10
2017-09-29T16:07:50.481Z,5.97
2017-09-29T16:10:18.033Z,6.20
2017-09-29T16:12:45.600Z,5.67
2017-09-29T16:15:13.191Z,5.87
2017-09-29T16:17:41.538Z,5.90
2017-09-29T16:20:09.125Z,5.50
2017-09-29T16:22:37.427Z,5.63
2017-09-29T16:25:04.986Z,5.57
2017-09-29T16:27:32.546Z,5.87
2017-09-29T16:30:00.118Z,6.10
2017-09-29T16:32:27.691Z,6.30
2017-09-29T16:34:55.885Z,6.10
2017-09-29T16:37:24.050Z,6.20
2017-09-29T16:39:51.598Z,6.30
2017-09-29T16:42:19.177Z,7.07
2017-09-29T16:44:46.733Z,7.17
2017-09-29T16:47:14.304Z,6.97
2017-09-29T16:49:41.895Z,7.20
2017-09-29T16:52:09.463Z,6.53
2017-09-29T16:54:37.027Z,6.50
2017-09-29T16:57:04.633Z,6.70
2017-09-29T16:59:32.188Z,6.70
2017-09-29T17:01:59.744Z,6.40
2017-09-29T17:04:27.313Z,7.20
2017-09-29T17:06:54.867Z,7.00
2017-09-29T17:09:22.422Z,7.30
2017-09-29T17:11:49.968Z,6.43
2017-09-29T17:14:17.524Z,6.83
2017-09-29T17:16:45.096Z,7.00
2017-09-29T17:19:12.655Z,7.67
2017-09-29T17:21:40.346Z,8.43
2017-09-29T17:24:07.934Z,8.17
2017-09-29T17:26:39.440Z,7.47
2017-09-29T17:29:07.796Z,8.27
2017-09-29T17:31:35.378Z,7.00
2017-09-29T17:34:02.942Z,7.00
2017-09-29T17:36:30.505Z,7.40
2017-09-29T17:38:58.102Z,7.10
2017-09-29T17:41:26.436Z,7.30
2017-09-29T17:43:53.989Z,7.80
2017-09-29T17:46:21.571Z,6.77
2017-09-29T17:49:01.176Z,6.23
2017-09-29T17:51:28.785Z,7.00
2017-09-29T17:54:00.746Z,7.40
2017-09-29T17:56:29.569Z,7.20
2017-09-29T17:58:58.969Z,7.60
2017-09-29T18:01:27.123Z,7.20
2017-09-29T18:03:54.887Z,7.67
2017-09-29T18:06:22.528Z,7.40
2017-09-29T18:08:50.266Z,7.50
2017-09-29T18:11:18.150Z,7.63
2017-09-29T18:13:45.730Z,7.87
2017-09-29T18:16:13.870Z,8.10
2017-09-29T18:18:41.533Z,8.13
2017-09-29T18:21:09.130Z,7.10
2017-09-29T18:23:36.777Z,8.33
2017-09-29T18:26:04.663Z,8.53
2017-09-29T18:28:33.166Z,7.90
2017-09-29T18:31:00.769Z,8.40
2017-09-29T18:33:28.353Z,7.93
2017-09-29T18:35:55.915Z,8.90
2017-09-29T18:38:23.540Z,8.30
2017-09-29T18:40:54.055Z,9.00
2017-09-29T18:43:21.651Z,8.50
2017-09-29T18:45:52.106Z,8.20
2017-09-29T18:48:20.720Z,9.00
2017-09-29T18:50:48.909Z,8.40
2017-09-29T18:53:16.500Z,9.13
2017-09-29T18:55:44.979Z,9.30
2017-09-29T18:58:13.385Z,10.50
2017-09-29T19:00:41.027Z,9.40
2017-09-29T19:03:09.376Z,9.60
2017-09-29T19:05:37.347Z,9.57
2017-09-29T19:08:06.204Z,9.60
2017-09-29T19:10:34.669Z,9.60
2017-09-29T19:13:03.091Z,9.10
2017-09-29T19:15:30.798Z,9.60
2017-09-29T19:17:59.132Z,9.57
2017-09-29T19:20:27.158Z,9.53
2017-09-29T19:22:56.110Z,9.60
2017-09-29T19:25:24.202Z,9.00
2017-09-29T19:27:52.550Z,9.57
2017-09-29T19:30:21.467Z,9.83
2017-09-29T19:32:49.067Z,9.57
2017-09-29T19:35:16.616Z,8.93
2017-09-29T19:37:46.162Z,9.20
2017-09-29T19:40:15.745Z,10.20
2017-09-29T19:42:46.345Z,10.00
2017-09-29T19:45:15.471Z,10.47
2017-09-29T19:47:44.614Z,9.30
2017-09-29T19:50:19.177Z,10.00
2017-09-29T19:52:47.563Z,10.20
2017-09-29T19:55:16.884Z,9.77
2017-09-29T19:57:45.328Z,11.77
2017-09-29T20:00:15.849Z,10.23
2017-09-29T20:02:45.038Z,11.13
2017-09-29T20:05:14.515Z,10.87
2017-09-29T20:07:44.351Z,10.50
2017-09-29T20:10:13.274Z,10.43
2017-09-29T20:12:41.141Z,10.50
2017-09-29T20:15:08.767Z,10.83
2017-09-29T20:17:36.366Z,11.40
2017-09-29T20:20:04.984Z,11.47
2017-09-29T20:22:33.628Z,11.50
2017-09-29T20:25:02.607Z,11.80
2017-09-29T20:27:30.211Z,11.73
2017-09-29T20:29:57.771Z,11.63
2017-09-29T20:32:25.874Z,10.70
2017-09-29T20:34:54.311Z,11.20
2017-09-29T20:37:22.603Z,11.07
2017-09-29T20:39:50.232Z,11.20
2017-09-29T20:42:18.565Z,10.60
2017-09-29T20:44:46.755Z,10.60
2017-09-29T20:47:16.332Z,11.40
2017-09-29T20:49:45.763Z,11.40
2017-09-29T20:52:13.869Z,12.10
2017-09-29T20:54:42.632Z,12.60
2017-09-29T20:57:10.220Z,12.00
2017-09-29T20:59:38.582Z,12.10
2017-09-29T21:02:07.122Z,11.70
2017-09-29T21:04:36.558Z,11.50
2017-09-29T21:07:05.777Z,11.90
2017-09-29T21:09:35.197Z,11.87
2017-09-29T21:18:47.525Z,11.27
2017-09-29T21:21:15.500Z,11.90
2017-09-29T21:23:43.959Z,12.40
2017-09-29T21:26:12.990Z,11.60
2017-09-29T21:28:41.660Z,11.13
2017-09-29T21:31:10.803Z,11.90
2017-09-29T21:33:39.258Z,12.50
2017-09-29T21:36:08.042Z,12.67
2017-09-29T21:38:35.721Z,12.33
2017-09-29T21:41:04.078Z,13.30
2017-09-29T21:43:31.676Z,12.43
2017-09-29T21:45:59.306Z,18.87
2017-09-29T21:48:27.663Z,18.10
2017-09-29T21:50:55.361Z,17.43
2017-09-29T21:53:22.926Z,14.67
2017-09-29T21:55:51.304Z,16.70
2017-09-29T21:58:19.645Z,16.60
2017-09-29T22:00:47.231Z,15.63
2017-09-29T22:03:15.573Z,15.80
2017-09-29T22:05:43.125Z,16.80
2017-09-29T22:08:10.699Z,15.53
2017-09-29T22:10:38.271Z,15.27
2017-09-29T22:13:05.853Z,14.80
2017-09-29T22:15:34.188Z,13.97
2017-09-29T22:18:01.817Z,13.20
2017-09-29T22:20:29.393Z,13.67
2017-09-29T22:22:56.961Z,14.87
2017-09-29T22:25:24.514Z,13.23
2017-09-29T22:27:52.274Z,14.40
2017-09-29T22:30:19.858Z,13.87
2017-09-29T22:32:47.431Z,13.70
2017-09-29T22:35:15.011Z,14.27
2017-09-29T22:37:42.590Z,12.43
2017-09-29T22:40:10.942Z,13.23
2017-09-29T22:42:38.526Z,13.00
2017-09-29T22:45:06.861Z,13.20
2017-09-29T22:47:34.453Z,13.60
2017-09-29T22:50:02.792Z,15.17
2017-09-29T22:52:30.391Z,15.33
2017-09-29T22:54:58.709Z,14.63
2017-09-29T22:57:26.292Z,15.40
2017-09-29T22:59:53.843Z,17.10
2017-09-29T23:02:21.404Z,16.33
2017-09-29T23:04:48.952Z,14.60
2017-09-29T23:07:16.518Z,13.93
2017-09-29T23:09:44.077Z,14.97
2017-09-29T23:12:11.671Z,13.90
2017-09-29T23:14:39.232Z,14.50
2017-09-29T23:17:06.807Z,15.53
2017-09-29T23:19:35.149Z,15.17
2017-09-29T23:22:02.700Z,13.73
2017-09-29T23:24:30.278Z,14.53
2017-09-29T23:26:57.849Z,14.80
2017-09-29T23:29:25.401Z,15.23
2017-09-29T23:31:52.962Z,14.77
2017-09-29T23:34:20.530Z,15.80
2017-09-29T23:36:48.096Z,15.60
2017-09-29T23:39:15.692Z,14.30
2017-09-29T23:41:43.263Z,14.67
2017-09-29T23:44:10.870Z,14.80
2017-09-29T23:46:38.445Z,15.50
2017-09-29T23:49:06.786Z,15.50
2017-09-29T23:51:34.365Z,14.03
2017-09-29T23:54:01.930Z,15.10
2017-09-29T23:56:29.510Z,15.53
2017-09-29T23:58:57.825Z,14.50
